Sea Drift — WDC2818 — position and weather

sailwx.info

Track history (hours):
 
Tides and Currents Weather Stations Pressure Air Temp Water Temp Dewpoint Dewpoint Depression Visibility Wind Speed Wind Dir Waves Ship Positions

Sea Drift

Owner: Marquette Transportation Company Gulf-Inland, LLC, Jefferson, LA. More information available from US FCC via Universal Licensing System and Coast Guard Vessel Documentation Center.

Last reported at 2014-Dec-20 18:33 UTC. Time now 2014-Dec-20 19:26 UTC.
Position N 29°42' W 095°01'.

Length 23 m; draft 3 m.

Type: Towing. MMSI: 366998080.

Date/timePositionNaut miles runAvg speedWind from/ knotsBaromVisibWave heightAir tempDewpointWater temp
2014-Dec-20 18:33N 29°42' W 095°01'6 5.2
2014-Dec-20 17:28N 29°46' W 095°06'0 0.1
2014-Dec-20 16:30N 29°46' W 095°05'2 1.6
2014-Dec-20 15:33N 29°47' W 095°04'0 0.0
2014-Dec-20 14:33N 29°47' W 095°04'0 0.3
2014-Dec-20 13:33N 29°47' W 095°04'0 0.0
2014-Dec-20 12:33N 29°47' W 095°04'0 0.0
2014-Dec-20 11:33N 29°47' W 095°04'0 0.0
2014-Dec-20 10:33N 29°47' W 095°04'0 0.0
2014-Dec-20 09:33N 29°47' W 095°04'0 0.0
2014-Dec-20 08:33N 29°47' W 095°04'0 0.0
2014-Dec-20 07:33N 29°47' W 095°04'2 1.7
2014-Dec-20 06:31N 29°46' W 095°05'0 0.2
2014-Dec-20 05:28N 29°46' W 095°06'0 0.5
2014-Dec-20 04:27N 29°45' W 095°06'2 2.4
2014-Dec-20 03:31N 29°47' W 095°04'5 5.0
2014-Dec-20 02:33N 29°43' W 095°01'7 7.0
2014-Dec-20 01:33N 29°37' W 094°57'9 8.8
2014-Dec-20 00:33N 29°30' W 094°52'7 5.2
2014-Dec-19 23:12N 29°23' W 094°52'2 3.5
2014-Dec-19 22:29N 29°22' W 094°54'8 2.3
2014-Dec-19 19:11N 29°29' W 094°52'5 7.7
2014-Dec-19 18:33N 29°33' W 094°55'7 6.7
2014-Dec-19 17:33N 29°37' W 095°01'0 0.3
2014-Dec-19 16:33N 29°37' W 095°01'0 0.0
2014-Dec-19 15:33N 29°37' W 095°01'0 0.0
2014-Dec-19 14:33N 29°37' W 095°01'0 0.0
2014-Dec-19 13:33N 29°37' W 095°01'0 0.0
2014-Dec-19 12:33N 29°37' W 095°01'0 0.0
2014-Dec-19 11:33N 29°37' W 095°01'0 0.0
2014-Dec-19 10:33N 29°37' W 095°01'0 0.0
2014-Dec-19 09:33N 29°37' W 095°01'0 0.0
2014-Dec-19 08:31N 29°37' W 095°01'0 0.0
2014-Dec-19 07:33N 29°37' W 095°01'0 0.0
2014-Dec-19 06:33N 29°37' W 095°01'0 0.0
2014-Dec-19 05:33N 29°37' W 095°01'0 0.0
2014-Dec-19 04:33N 29°37' W 095°01'1 0.8
2014-Dec-19 03:33N 29°37' W 095°00'5 5.0
2014-Dec-19 02:33N 29°42' W 094°60'6 6.5
2014-Dec-19 01:33N 29°46' W 095°05'0 0.2
2014-Dec-19 00:33N 29°46' W 095°06'1 0.5
2014-Dec-18 23:14N 29°45' W 095°06'1 1.0
2014-Dec-18 22:33N 29°46' W 095°06'0 0.2
2014-Dec-18 21:33N 29°46' W 095°06'0 0.0
2014-Dec-18 20:32N 29°46' W 095°06'0 0.0
2014-Dec-18 19:29N 29°46' W 095°06'0 0.0
2014-Dec-18 18:31N 29°46' W 095°06'0 0.0
2014-Dec-18 17:33N 29°46' W 095°06'0 0.0
2014-Dec-18 16:32N 29°46' W 095°06'0 0.0
2014-Dec-18 15:33N 29°46' W 095°06'0 0.0
2014-Dec-18 14:33N 29°46' W 095°06'1 0.1
2014-Dec-18 01:16N 29°45' W 095°06'1 1.7
2014-Dec-18 00:34N 29°46' W 095°05'2 1.5
2014-Dec-17 23:17N 29°47' W 095°04'2 2.5
2014-Dec-17 22:32N 29°46' W 095°05'0 0.3
2014-Dec-17 21:27N 29°46' W 095°06'0 0.0
2014-Dec-17 20:30N 29°46' W 095°06'5 5.0
2014-Dec-17 19:33N 29°43' W 095°01'8 7.6
2014-Dec-17 18:33N 29°36' W 094°57'8 8.3
2014-Dec-17 17:33N 29°30' W 094°52'8 6.1
2014-Dec-17 16:13N 29°23' W 094°46'1 0.7
2014-Dec-17 14:09N 29°24' W 094°45'12 0.3
2014-Dec-16 00:31N 29°33' W 094°54'8 8.2
2014-Dec-15 23:33N 29°40' W 094°58'7 7.4
2014-Dec-15 22:33N 29°45' W 095°04'2 1.7
2014-Dec-15 21:33N 29°45' W 095°06'1 0.7
2014-Dec-15 20:34N 29°45' W 095°06'4 4.1
2014-Dec-15 19:34N 29°45' W 095°11'0 0.0
2014-Dec-15 18:33N 29°45' W 095°11'4 4.0
2014-Dec-15 17:33N 29°45' W 095°06'3 3.3
2014-Dec-15 16:33N 29°47' W 095°04'2 2.4
2014-Dec-15 15:33N 29°46' W 095°07'0 0.1
2014-Dec-15 14:33N 29°46' W 095°06'1 0.2
2014-Dec-15 10:32N 29°46' W 095°06'0 0.2
2014-Dec-15 08:33N 29°46' W 095°05'6 5.8
2014-Dec-15 07:33N 29°42' W 095°00'7 6.5
2014-Dec-15 06:33N 29°36' W 094°57'7 6.8
2014-Dec-15 05:33N 29°31' W 094°53'3 0.2
2014-Dec-14 07:32N 29°33' W 094°55'6 6.5
2014-Dec-14 06:33N 29°39' W 094°58'6 5.6
2014-Dec-14 05:27N 29°44' W 095°03'3 3.3
2014-Dec-14 04:30N 29°46' W 095°05'1 1.0
2014-Dec-14 03:29N 29°47' W 095°04'1 0.6
2014-Dec-14 02:14N 29°47' W 095°05'1 0.3
2014-Dec-13 22:32N 29°46' W 095°05'6 6.6
2014-Dec-13 21:33N 29°42' W 094°60'8 7.7
2014-Dec-13 20:33N 29°35' W 094°56'8 7.8
2014-Dec-13 19:33N 29°28' W 094°51'12 4.9
2014-Dec-13 17:07N 29°17' W 094°57'2 0.1
2014-Dec-12 14:27N 29°17' W 094°55'8 6.5
2014-Dec-12 13:14N 29°22' W 094°48'5 6.6
2014-Dec-12 12:30N 29°25' W 094°43'0 0.1
2014-Dec-12 11:28N 29°25' W 094°43'4 2.0
2014-Dec-12 09:24N 29°22' W 094°47'9 2.1
2014-Dec-12 05:11N 29°30' W 094°52'4 6.2
2014-Dec-12 04:33N 29°33' W 094°55'7 7.2
2014-Dec-12 03:33N 29°40' W 094°58'7 6.5
2014-Dec-12 02:33N 29°44' W 095°04'3 2.7
2014-Dec-12 01:33N 29°47' W 095°04'2 1.5
2014-Dec-12 00:33N 29°46' W 095°06'0 0.0
2014-Dec-11 23:33N 29°46' W 095°06'1 1.5
2014-Dec-11 22:33N 29°47' W 095°04'1 0.8
2014-Dec-11 21:33N 29°46' W 095°05'0 0.1
2014-Dec-11 20:33N 29°46' W 095°05'1 1.4
2014-Dec-11 19:33N 29°47' W 095°04'2 1.8
2014-Dec-11 18:33N 29°45' W 095°04'2 2.3
2014-Dec-11 17:33N 29°44' W 095°02'3 3.2
2014-Dec-11 16:33N 29°46' W 095°05'1 1.0
2014-Dec-11 15:33N 29°46' W 095°06'5 5.3
2014-Dec-11 14:33N 29°42' W 095°01'7 7.2
2014-Dec-11 13:34N 29°36' W 094°57'9 8.7
2014-Dec-11 12:33N 29°29' W 094°51'  
Track history (hours):
 
Tides and Currents Weather Stations Pressure Air Temp Water Temp Dewpoint Dewpoint Depression Visibility Wind Speed Wind Dir Waves Ship Positions

Sea Drift

Owner: Marquette Transportation Company Gulf-Inland, LLC, Jefferson, LA. More information available from US FCC via Universal Licensing System and Coast Guard Vessel Documentation Center.

Last reported at 2014-Dec-20 18:33 UTC. Time now 2014-Dec-20 19:26 UTC.
Position N 29°42' W 095°01'.

Length 23 m; draft 3 m.

Type: Towing. MMSI: 366998080.

Date/timePositionNaut miles runAvg speedWind from/ knotsBaromVisibWave heightAir tempDewpointWater temp
2014-Dec-20 18:33N 29°42' W 095°01'6 5.2
2014-Dec-20 17:28N 29°46' W 095°06'0 0.1
2014-Dec-20 16:30N 29°46' W 095°05'2 1.6
2014-Dec-20 15:33N 29°47' W 095°04'0 0.0
2014-Dec-20 14:33N 29°47' W 095°04'0 0.3
2014-Dec-20 13:33N 29°47' W 095°04'0 0.0
2014-Dec-20 12:33N 29°47' W 095°04'0 0.0
2014-Dec-20 11:33N 29°47' W 095°04'0 0.0
2014-Dec-20 10:33N 29°47' W 095°04'0 0.0
2014-Dec-20 09:33N 29°47' W 095°04'0 0.0
2014-Dec-20 08:33N 29°47' W 095°04'0 0.0
2014-Dec-20 07:33N 29°47' W 095°04'2 1.7
2014-Dec-20 06:31N 29°46' W 095°05'0 0.2
2014-Dec-20 05:28N 29°46' W 095°06'0 0.5
2014-Dec-20 04:27N 29°45' W 095°06'2 2.4
2014-Dec-20 03:31N 29°47' W 095°04'5 5.0
2014-Dec-20 02:33N 29°43' W 095°01'7 7.0
2014-Dec-20 01:33N 29°37' W 094°57'9 8.8
2014-Dec-20 00:33N 29°30' W 094°52'7 5.2
2014-Dec-19 23:12N 29°23' W 094°52'2 3.5
2014-Dec-19 22:29N 29°22' W 094°54'8 2.3
2014-Dec-19 19:11N 29°29' W 094°52'5 7.7
2014-Dec-19 18:33N 29°33' W 094°55'7 6.7
2014-Dec-19 17:33N 29°37' W 095°01'0 0.3
2014-Dec-19 16:33N 29°37' W 095°01'0 0.0
2014-Dec-19 15:33N 29°37' W 095°01'0 0.0
2014-Dec-19 14:33N 29°37' W 095°01'0 0.0
2014-Dec-19 13:33N 29°37' W 095°01'0 0.0
2014-Dec-19 12:33N 29°37' W 095°01'0 0.0
2014-Dec-19 11:33N 29°37' W 095°01'0 0.0
2014-Dec-19 10:33N 29°37' W 095°01'0 0.0
2014-Dec-19 09:33N 29°37' W 095°01'0 0.0
2014-Dec-19 08:31N 29°37' W 095°01'0 0.0
2014-Dec-19 07:33N 29°37' W 095°01'0 0.0
2014-Dec-19 06:33N 29°37' W 095°01'0 0.0
2014-Dec-19 05:33N 29°37' W 095°01'0 0.0
2014-Dec-19 04:33N 29°37' W 095°01'1 0.8
2014-Dec-19 03:33N 29°37' W 095°00'5 5.0
2014-Dec-19 02:33N 29°42' W 094°60'6 6.5
2014-Dec-19 01:33N 29°46' W 095°05'0 0.2
2014-Dec-19 00:33N 29°46' W 095°06'1 0.5
2014-Dec-18 23:14N 29°45' W 095°06'1 1.0
2014-Dec-18 22:33N 29°46' W 095°06'0 0.2
2014-Dec-18 21:33N 29°46' W 095°06'0 0.0
2014-Dec-18 20:32N 29°46' W 095°06'0 0.0
2014-Dec-18 19:29N 29°46' W 095°06'0 0.0
2014-Dec-18 18:31N 29°46' W 095°06'0 0.0
2014-Dec-18 17:33N 29°46' W 095°06'0 0.0
2014-Dec-18 16:32N 29°46' W 095°06'0 0.0
2014-Dec-18 15:33N 29°46' W 095°06'0 0.0
2014-Dec-18 14:33N 29°46' W 095°06'1 0.1
2014-Dec-18 01:16N 29°45' W 095°06'1 1.7
2014-Dec-18 00:34N 29°46' W 095°05'2 1.5
2014-Dec-17 23:17N 29°47' W 095°04'2 2.5
2014-Dec-17 22:32N 29°46' W 095°05'0 0.3
2014-Dec-17 21:27N 29°46' W 095°06'0 0.0
2014-Dec-17 20:30N 29°46' W 095°06'5 5.0
2014-Dec-17 19:33N 29°43' W 095°01'8 7.6
2014-Dec-17 18:33N 29°36' W 094°57'8 8.3
2014-Dec-17 17:33N 29°30' W 094°52'8 6.1
2014-Dec-17 16:13N 29°23' W 094°46'1 0.7
2014-Dec-17 14:09N 29°24' W 094°45'12 0.3
2014-Dec-16 00:31N 29°33' W 094°54'8 8.2
2014-Dec-15 23:33N 29°40' W 094°58'7 7.4
2014-Dec-15 22:33N 29°45' W 095°04'2 1.7
2014-Dec-15 21:33N 29°45' W 095°06'1 0.7
2014-Dec-15 20:34N 29°45' W 095°06'4 4.1
2014-Dec-15 19:34N 29°45' W 095°11'0 0.0
2014-Dec-15 18:33N 29°45' W 095°11'4 4.0
2014-Dec-15 17:33N 29°45' W 095°06'3 3.3
2014-Dec-15 16:33N 29°47' W 095°04'2 2.4
2014-Dec-15 15:33N 29°46' W 095°07'0 0.1
2014-Dec-15 14:33N 29°46' W 095°06'1 0.2
2014-Dec-15 10:32N 29°46' W 095°06'0 0.2
2014-Dec-15 08:33N 29°46' W 095°05'6 5.8
2014-Dec-15 07:33N 29°42' W 095°00'7 6.5
2014-Dec-15 06:33N 29°36' W 094°57'7 6.8
2014-Dec-15 05:33N 29°31' W 094°53'3 0.2
2014-Dec-14 07:32N 29°33' W 094°55'6 6.5
2014-Dec-14 06:33N 29°39' W 094°58'6 5.6
2014-Dec-14 05:27N 29°44' W 095°03'3 3.3
2014-Dec-14 04:30N 29°46' W 095°05'1 1.0
2014-Dec-14 03:29N 29°47' W 095°04'1 0.6
2014-Dec-14 02:14N 29°47' W 095°05'1 0.3
2014-Dec-13 22:32N 29°46' W 095°05'6 6.6
2014-Dec-13 21:33N 29°42' W 094°60'8 7.7
2014-Dec-13 20:33N 29°35' W 094°56'8 7.8
2014-Dec-13 19:33N 29°28' W 094°51'12 4.9
2014-Dec-13 17:07N 29°17' W 094°57'2 0.1
2014-Dec-12 14:27N 29°17' W 094°55'8 6.5
2014-Dec-12 13:14N 29°22' W 094°48'5 6.6
2014-Dec-12 12:30N 29°25' W 094°43'0 0.1
2014-Dec-12 11:28N 29°25' W 094°43'4 2.0
2014-Dec-12 09:24N 29°22' W 094°47'9 2.1
2014-Dec-12 05:11N 29°30' W 094°52'4 6.2
2014-Dec-12 04:33N 29°33' W 094°55'7 7.2
2014-Dec-12 03:33N 29°40' W 094°58'7 6.5
2014-Dec-12 02:33N 29°44' W 095°04'3 2.7
2014-Dec-12 01:33N 29°47' W 095°04'2 1.5
2014-Dec-12 00:33N 29°46' W 095°06'0 0.0
2014-Dec-11 23:33N 29°46' W 095°06'1 1.5
2014-Dec-11 22:33N 29°47' W 095°04'1 0.8
2014-Dec-11 21:33N 29°46' W 095°05'0 0.1
2014-Dec-11 20:33N 29°46' W 095°05'1 1.4
2014-Dec-11 19:33N 29°47' W 095°04'2 1.8
2014-Dec-11 18:33N 29°45' W 095°04'2 2.3
2014-Dec-11 17:33N 29°44' W 095°02'3 3.2
2014-Dec-11 16:33N 29°46' W 095°05'1 1.0
2014-Dec-11 15:33N 29°46' W 095°06'5 5.3
2014-Dec-11 14:33N 29°42' W 095°01'7 7.2
2014-Dec-11 13:34N 29°36' W 094°57'9 8.7
2014-Dec-11 12:33N 29°29' W 094°51'  

Dump ship's entire track history